Time;durP1;ratioP1;P1;durP2;ratioP2;P2;SDS_P1;SDS_P2;PMS_P1;PMS_P2;Temp;Humidity;BMP_temperature;BMP_pressure;BME280_temperature;BME280_humidity;BME280_pressure;Samples;Min_cycle;Max_cycle;Signal;HPM_P1;HPM_P2
2021/05/25 00:01:11;;;;;;;4.00;1.10;;;6.80;99.90;;;;;;5053239;28;20540;-67
2021/05/25 00:03:38;;;;;;;3.10;1.30;;;6.80;99.90;;;;;;5053290;28;20547;-67
2021/05/25 00:06:05;;;;;;;1.83;1.00;;;6.80;99.90;;;;;;5053176;28;20457;-67
2021/05/25 00:08:32;;;;;;;2.80;1.00;;;6.70;99.90;;;;;;5053382;28;20449;-66
2021/05/25 00:10:59;;;;;;;2.30;0.80;;;6.70;99.90;;;;;;5052319;28;20798;-67
2021/05/25 00:13:25;;;;;;;4.17;1.30;;;6.70;99.90;;;;;;5052836;28;20456;-67
2021/05/25 00:15:53;;;;;;;2.50;0.93;;;6.70;99.90;;;;;;5052707;28;20471;-67
2021/05/25 00:18:21;;;;;;;1.63;1.00;;;6.70;99.90;;;;;;5053210;28;20425;-67
2021/05/25 00:20:48;;;;;;;5.20;1.13;;;6.70;99.90;;;;;;5053035;28;20501;-67
2021/05/25 00:23:15;;;;;;;1.20;1.10;;;6.70;99.90;;;;;;5052855;28;20430;-67
2021/05/25 00:25:43;;;;;;;3.27;1.20;;;6.70;99.90;;;;;;5053055;28;20433;-67
2021/05/25 00:28:10;;;;;;;3.40;1.10;;;6.70;99.90;;;;;;5053237;28;20878;-67
2021/05/25 00:30:37;;;;;;;2.03;1.20;;;6.70;99.90;;;;;;5052432;28;20947;-67
2021/05/25 00:33:04;;;;;;;1.17;0.93;;;6.70;99.90;;;;;;5052669;28;20525;-67
2021/05/25 00:35:35;;;;;;;4.67;1.50;;;6.70;99.90;;;;;;5052763;28;20476;-66
2021/05/25 00:38:02;;;;;;;2.67;1.13;;;6.70;99.90;;;;;;5053437;28;20492;-67
2021/05/25 00:40:29;;;;;;;5.77;2.10;;;6.80;99.90;;;;;;5052855;28;20470;-67
2021/05/25 00:42:55;;;;;;;5.23;1.30;;;6.70;99.90;;;;;;5052414;28;20503;-67
2021/05/25 00:45:22;;;;;;;8.20;2.43;;;6.70;99.90;;;;;;5052305;28;20437;-67
2021/05/25 00:47:49;;;;;;;2.17;1.60;;;6.80;99.90;;;;;;5052467;28;20451;-67
2021/05/25 00:50:18;;;;;;;6.93;1.50;;;6.70;99.90;;;;;;5052516;28;20940;-66
2021/05/25 00:52:48;;;;;;;1.87;1.17;;;6.70;99.90;;;;;;5051743;28;20435;-67
2021/05/25 00:55:17;;;;;;;1.63;1.17;;;6.70;99.90;;;;;;5052230;28;20927;-67
2021/05/25 00:57:44;;;;;;;1.40;1.13;;;6.70;99.90;;;;;;5052037;28;20450;-67
2021/05/25 01:00:12;;;;;;;2.60;1.00;;;6.70;99.90;;;;;;5052317;28;20445;-67
2021/05/25 01:02:39;;;;;;;3.60;1.57;;;6.70;99.90;;;;;;5052337;28;20443;-67
2021/05/25 01:05:08;;;;;;;3.67;1.40;;;6.70;99.90;;;;;;5051626;28;20815;-67
2021/05/25 01:07:35;;;;;;;1.57;1.07;;;6.60;99.90;;;;;;5052108;28;21197;-67
2021/05/25 01:10:04;;;;;;;1.70;1.10;;;6.50;99.90;;;;;;5052012;28;20438;-67
2021/05/25 01:12:33;;;;;;;2.20;1.27;;;6.50;99.90;;;;;;5052425;28;20439;-67
2021/05/25 01:15:07;;;;;;;1.40;1.00;;;6.50;99.90;;;;;;5051489;28;20474;-67
2021/05/25 01:17:33;;;;;;;1.53;1.20;;;6.40;99.90;;;;;;5051988;28;20578;-66
2021/05/25 01:20:01;;;;;;;4.80;1.57;;;6.40;99.90;;;;;;5052134;28;20441;-67
2021/05/25 01:22:29;;;;;;;3.90;0.90;;;6.30;99.90;;;;;;5052046;28;20530;-67
2021/05/25 01:24:56;;;;;;;1.50;1.17;;;6.30;99.90;;;;;;5051800;28;20440;-67
2021/05/25 01:27:24;;;;;;;1.73;1.20;;;6.20;99.90;;;;;;5051817;28;20453;-67
2021/05/25 01:29:50;;;;;;;2.43;1.13;;;6.20;99.90;;;;;;5051659;28;20507;-67
2021/05/25 01:32:17;;;;;;;1.10;1.00;;;6.20;99.90;;;;;;5051486;28;20538;-66
2021/05/25 01:34:45;;;;;;;1.30;1.20;;;6.20;99.90;;;;;;5051307;28;20475;-67
2021/05/25 01:37:11;;;;;;;3.47;1.10;;;6.20;99.90;;;;;;5051540;28;20545;-67
2021/05/25 01:39:39;;;;;;;2.70;0.90;;;6.20;99.90;;;;;;5051706;28;20436;-67
2021/05/25 01:42:06;;;;;;;1.47;1.10;;;6.20;99.90;;;;;;5051449;28;20532;-66
2021/05/25 01:44:36;;;;;;;1.10;0.90;;;6.20;99.90;;;;;;5051278;28;20459;-67
2021/05/25 01:47:03;;;;;;;1.10;0.80;;;6.20;99.90;;;;;;5051200;28;20508;-67
2021/05/25 01:49:29;;;;;;;3.60;1.20;;;6.20;99.90;;;;;;5051353;28;20531;-67
2021/05/25 01:51:56;;;;;;;2.00;1.33;;;6.20;99.90;;;;;;5051251;28;20434;-67
2021/05/25 01:54:23;;;;;;;3.40;1.17;;;6.20;99.90;;;;;;5051040;28;20527;-67
2021/05/25 01:56:50;;;;;;;1.00;0.90;;;6.20;99.90;;;;;;5051180;28;20472;-67
2021/05/25 01:59:17;;;;;;;1.37;1.00;;;6.20;99.90;;;;;;5051195;28;20446;-66
2021/05/25 02:01:44;;;;;;;1.13;0.83;;;6.20;99.90;;;;;;5050747;28;20455;-67
2021/05/25 02:04:10;;;;;;;1.60;1.20;;;6.20;99.90;;;;;;5050869;28;20453;-67
2021/05/25 02:06:37;;;;;;;2.73;1.30;;;6.20;99.90;;;;;;5051171;28;20466;-67
2021/05/25 02:09:05;;;;;;;1.17;0.77;;;6.10;99.90;;;;;;5050965;28;20449;-67
2021/05/25 02:11:31;;;;;;;3.17;1.00;;;6.20;99.90;;;;;;5051134;28;20452;-67
2021/05/25 02:13:59;;;;;;;1.50;1.00;;;6.20;99.90;;;;;;5050810;28;20451;-67
2021/05/25 02:16:26;;;;;;;4.63;1.20;;;6.10;99.90;;;;;;5050610;28;20470;-66
2021/05/25 02:18:52;;;;;;;1.00;0.90;;;6.10;99.90;;;;;;5050864;28;20500;-67
2021/05/25 02:21:21;;;;;;;6.90;1.27;;;6.10;99.90;;;;;;5050949;28;20427;-66
2021/05/25 02:23:49;;;;;;;4.63;0.90;;;6.10;99.90;;;;;;5050645;28;20428;-67
2021/05/25 02:26:16;;;;;;;1.20;0.97;;;6.10;99.90;;;;;;5050810;28;21043;-67
2021/05/25 02:28:43;;;;;;;2.10;1.17;;;6.10;99.90;;;;;;5050858;28;20444;-67
2021/05/25 02:31:13;;;;;;;3.87;1.40;;;6.10;99.90;;;;;;5050525;28;20435;-67
2021/05/25 02:33:41;;;;;;;2.27;1.40;;;6.00;99.90;;;;;;5050009;28;20444;-67
2021/05/25 02:36:08;;;;;;;2.57;1.57;;;6.00;99.90;;;;;;5050510;28;20553;-67
2021/05/25 02:38:35;;;;;;;2.57;1.00;;;5.90;99.90;;;;;;5050651;28;20518;-67
2021/05/25 02:41:02;;;;;;;3.63;1.10;;;5.90;99.90;;;;;;5050621;28;20535;-67
2021/05/25 02:43:30;;;;;;;1.27;1.17;;;5.90;99.90;;;;;;5050710;28;20439;-67
2021/05/25 02:45:58;;;;;;;1.43;1.00;;;5.90;99.90;;;;;;5050486;28;20451;-66
2021/05/25 02:48:26;;;;;;;1.73;1.00;;;5.80;99.90;;;;;;5050852;28;20450;-67
2021/05/25 02:50:53;;;;;;;1.53;1.03;;;5.80;99.90;;;;;;5050495;28;20963;-67
2021/05/25 02:53:20;;;;;;;3.77;1.00;;;5.80;99.90;;;;;;5050462;28;21024;-67
2021/05/25 02:55:47;;;;;;;2.00;1.10;;;5.80;99.90;;;;;;5049591;28;20572;-67
2021/05/25 02:58:13;;;;;;;3.23;1.10;;;5.80;99.90;;;;;;5050585;28;20437;-67
2021/05/25 03:00:42;;;;;;;2.13;1.37;;;5.80;99.90;;;;;;5050105;28;20432;-67
2021/05/25 03:03:09;;;;;;;1.87;1.70;;;5.80;99.90;;;;;;5050271;28;20435;-66
2021/05/25 03:05:37;;;;;;;1.67;0.93;;;5.70;99.90;;;;;;5050413;28;20444;-67
2021/05/25 03:08:06;;;;;;;1.00;0.90;;;5.70;99.90;;;;;;5050231;28;20429;-66
2021/05/25 03:10:41;;;;;;;1.10;1.00;;;5.70;99.90;;;;;;5050445;28;20538;-67
2021/05/25 03:13:08;;;;;;;1.23;1.00;;;5.60;99.90;;;;;;5050174;28;20440;-67
2021/05/25 03:15:38;;;;;;;0.90;0.80;;;5.60;99.90;;;;;;5049800;28;20478;-67
2021/05/25 03:18:07;;;;;;;3.03;1.80;;;5.50;99.90;;;;;;5050497;28;20472;-67
2021/05/25 03:20:34;;;;;;;5.10;1.10;;;5.60;99.90;;;;;;5050207;28;20447;-67
2021/05/25 03:23:03;;;;;;;1.97;1.10;;;5.50;99.90;;;;;;5050045;28;20440;-67
2021/05/25 03:25:36;;;;;;;2.40;1.10;;;5.50;99.90;;;;;;5049923;28;20443;-66
2021/05/25 03:28:02;;;;;;;2.10;1.03;;;5.50;99.90;;;;;;5050308;28;20511;-66
2021/05/25 03:30:29;;;;;;;7.50;1.20;;;5.50;99.90;;;;;;5050023;28;20433;-66
2021/05/25 03:32:57;;;;;;;1.97;1.20;;;5.50;99.90;;;;;;5050141;28;20424;-66
2021/05/25 03:35:25;;;;;;;6.30;1.30;;;5.50;99.90;;;;;;5050039;28;20493;-67
2021/05/25 03:37:52;;;;;;;4.43;1.33;;;5.40;99.90;;;;;;5050064;28;20433;-66
2021/05/25 03:40:20;;;;;;;7.67;1.43;;;5.40;99.90;;;;;;5050059;28;20443;-66
2021/05/25 03:42:48;;;;;;;2.90;1.23;;;5.40;99.90;;;;;;5050013;28;21172;-66
2021/05/25 03:45:16;;;;;;;1.30;0.80;;;5.40;99.90;;;;;;5052521;28;20483;-67
2021/05/25 03:47:43;;;;;;;4.33;1.30;;;5.40;99.90;;;;;;5053406;28;20446;-67
2021/05/25 03:50:11;;;;;;;2.90;1.33;;;5.30;99.90;;;;;;5053751;28;20446;-67
2021/05/25 03:52:39;;;;;;;9.00;2.00;;;5.30;99.90;;;;;;5053627;28;20511;-66
2021/05/25 03:55:12;;;;;;;14.23;2.10;;;5.30;99.90;;;;;;5053309;28;20554;-67
2021/05/25 04:00:23;;;;;;;2.50;1.10;;;5.40;99.90;;;;;;5020748;28;20433;-66
2021/05/25 04:02:50;;;;;;;3.67;1.30;;;5.30;99.90;;;;;;5053075;28;20884;-66
2021/05/25 04:05:17;;;;;;;2.33;1.00;;;5.30;99.90;;;;;;5052892;28;20903;-66
2021/05/25 04:07:44;;;;;;;2.10;1.47;;;5.30;99.90;;;;;;5052849;28;20488;-66
2021/05/25 04:10:11;;;;;;;5.33;1.27;;;5.30;99.90;;;;;;5053194;28;20440;-65
2021/05/25 04:12:39;;;;;;;10.33;1.30;;;5.40;99.90;;;;;;5053075;28;20440;-66
2021/05/25 04:15:07;;;;;;;7.27;1.63;;;5.40;99.90;;;;;;5053032;28;20426;-65
2021/05/25 04:17:34;;;;;;;3.23;1.10;;;5.40;99.90;;;;;;5052846;28;20450;-67
2021/05/25 04:20:00;;;;;;;5.97;2.30;;;5.40;99.90;;;;;;5053241;28;20423;-66
2021/05/25 04:22:27;;;;;;;1.60;1.20;;;5.40;99.90;;;;;;5053064;28;20426;-67
2021/05/25 04:24:54;;;;;;;6.13;1.27;;;5.40;99.90;;;;;;5053066;28;20534;-67
2021/05/25 04:27:21;;;;;;;2.40;1.20;;;5.50;99.90;;;;;;5052982;28;20443;-66
2021/05/25 04:29:48;;;;;;;6.97;1.10;;;5.50;99.90;;;;;;5052975;28;20441;-66
2021/05/25 04:32:15;;;;;;;2.60;2.00;;;5.50;99.90;;;;;;5052445;28;20927;-66
2021/05/25 04:34:41;;;;;;;4.30;1.23;;;5.50;99.90;;;;;;5052967;28;20776;-66
2021/05/25 04:37:08;;;;;;;2.50;1.20;;;5.60;99.90;;;;;;5052568;28;20479;-68
2021/05/25 04:39:35;;;;;;;1.90;0.93;;;5.60;99.90;;;;;;5052721;28;20496;-67
2021/05/25 04:42:01;;;;;;;2.30;1.10;;;5.60;99.90;;;;;;5052880;28;20954;-67
2021/05/25 04:44:28;;;;;;;3.03;0.93;;;5.50;99.90;;;;;;5052613;28;20423;-67
2021/05/25 04:46:56;;;;;;;5.20;1.40;;;5.60;99.90;;;;;;5052174;28;20451;-66
2021/05/25 04:49:22;;;;;;;3.73;1.20;;;5.60;99.90;;;;;;5052504;28;20445;-67
2021/05/25 04:51:49;;;;;;;7.43;1.77;;;5.60;99.90;;;;;;5052518;28;20442;-66
2021/05/25 04:54:16;;;;;;;3.87;1.67;;;5.70;99.90;;;;;;5052265;28;20978;-70
2021/05/25 04:56:44;;;;;;;7.00;2.13;;;5.70;99.90;;;;;;5051847;28;20493;-66
2021/05/25 04:59:13;;;;;;;5.07;1.43;;;5.70;99.90;;;;;;5052655;28;20759;-66
2021/05/25 05:01:40;;;;;;;6.43;1.30;;;5.70;99.90;;;;;;5052065;28;20439;-66
2021/05/25 05:04:07;;;;;;;1.73;1.50;;;5.70;99.90;;;;;;5051948;28;20924;-66
2021/05/25 05:06:34;;;;;;;4.43;1.70;;;5.70;99.90;;;;;;5052315;28;20834;-66
2021/05/25 05:09:01;;;;;;;3.57;1.10;;;5.70;99.90;;;;;;5052679;28;20485;-66
2021/05/25 05:11:27;;;;;;;1.63;1.50;;;5.70;99.90;;;;;;5052044;28;20484;-66
2021/05/25 05:13:54;;;;;;;4.53;1.40;;;5.70;99.90;;;;;;5051711;28;20462;-66
2021/05/25 05:16:21;;;;;;;3.63;1.20;;;5.70;99.90;;;;;;5051548;28;20472;-66
2021/05/25 05:18:48;;;;;;;3.20;1.30;;;5.80;99.90;;;;;;5051813;28;20435;-66
2021/05/25 05:21:15;;;;;;;1.40;1.00;;;5.90;99.90;;;;;;5051943;28;20455;-66
2021/05/25 05:23:42;;;;;;;7.30;3.53;;;5.80;99.90;;;;;;5051560;28;20449;-66
2021/05/25 05:26:10;;;;;;;0.90;0.80;;;5.90;99.90;;;;;;5052004;28;20459;-66
2021/05/25 05:28:37;;;;;;;3.00;1.20;;;5.90;99.90;;;;;;5051696;28;20516;-65
2021/05/25 05:31:04;;;;;;;7.80;1.63;;;5.90;99.90;;;;;;5051447;28;20439;-66
2021/05/25 05:33:31;;;;;;;2.23;0.80;;;5.90;99.90;;;;;;5050853;28;20445;-66
2021/05/25 05:35:58;;;;;;;6.13;1.90;;;5.90;99.90;;;;;;5051372;28;20485;-67
2021/05/25 05:38:25;;;;;;;2.70;1.00;;;5.90;99.90;;;;;;5051622;28;20784;-67
2021/05/25 05:40:55;;;;;;;2.90;1.00;;;5.80;99.90;;;;;;5051566;28;20443;-68
2021/05/25 05:43:24;;;;;;;4.53;1.10;;;5.90;99.90;;;;;;5051801;28;20438;-67
2021/05/25 05:45:51;;;;;;;2.20;1.00;;;6.00;99.90;;;;;;5051344;28;20506;-67
2021/05/25 05:48:17;;;;;;;2.23;1.27;;;6.10;99.90;;;;;;5051579;28;20435;-67
2021/05/25 05:50:44;;;;;;;4.63;1.33;;;6.10;99.90;;;;;;5051556;28;20919;-67
2021/05/25 05:53:11;;;;;;;5.30;1.60;;;6.10;99.90;;;;;;5051257;28;20517;-67
2021/05/25 05:55:38;;;;;;;9.30;1.20;;;6.20;99.90;;;;;;5051221;28;21027;-67
2021/05/25 05:58:06;;;;;;;5.47;1.40;;;6.20;99.90;;;;;;5051249;28;20439;-67
2021/05/25 06:00:33;;;;;;;3.00;0.80;;;6.30;99.90;;;;;;5051134;28;20433;-66
2021/05/25 06:03:00;;;;;;;3.53;1.20;;;6.30;99.90;;;;;;5050915;28;20438;-66
2021/05/25 06:05:27;;;;;;;5.20;1.27;;;6.30;99.90;;;;;;5051227;28;20439;-68
2021/05/25 06:07:54;;;;;;;4.60;0.97;;;6.20;99.90;;;;;;5050337;28;20862;-68
2021/05/25 06:10:20;;;;;;;2.57;1.80;;;6.30;99.90;;;;;;5051037;28;20820;-68
2021/05/25 06:12:48;;;;;;;3.07;1.00;;;6.30;99.90;;;;;;5050962;28;20439;-68
2021/05/25 06:15:15;;;;;;;3.20;1.23;;;6.40;99.90;;;;;;5050796;28;20443;-67
2021/05/25 06:17:42;;;;;;;5.80;1.40;;;6.40;99.90;;;;;;5050846;28;21001;-67
2021/05/25 06:20:10;;;;;;;2.67;0.90;;;6.40;99.90;;;;;;5050924;28;20438;-67
2021/05/25 06:22:37;;;;;;;8.03;1.10;;;6.30;99.90;;;;;;5050838;28;20485;-69
2021/05/25 06:25:06;;;;;;;3.67;1.20;;;6.20;99.90;;;;;;5050218;28;20432;-68
2021/05/25 06:27:33;;;;;;;6.03;1.23;;;6.20;99.90;;;;;;5050670;28;20455;-68
2021/05/25 06:30:01;;;;;;;2.87;0.93;;;6.30;99.90;;;;;;5050397;28;20423;-68
2021/05/25 06:32:27;;;;;;;1.00;0.87;;;6.40;99.90;;;;;;5050221;28;20443;-69
2021/05/25 06:34:54;;;;;;;2.10;0.93;;;6.40;99.90;;;;;;5049236;28;20431;-69
2021/05/25 06:37:21;;;;;;;5.73;1.53;;;6.30;99.90;;;;;;5050829;28;20471;-68
2021/05/25 06:39:48;;;;;;;7.43;1.63;;;6.40;99.90;;;;;;5050650;28;20447;-68
2021/05/25 06:42:15;;;;;;;7.13;1.43;;;6.60;99.90;;;;;;5050740;28;21007;-68
2021/05/25 06:44:42;;;;;;;3.57;1.30;;;6.70;99.90;;;;;;5049887;28;20458;-68
2021/05/25 06:47:10;;;;;;;5.53;1.20;;;6.70;99.90;;;;;;5049854;28;20463;-67
2021/05/25 06:49:36;;;;;;;4.97;1.17;;;6.70;99.90;;;;;;5047528;28;20504;-67
2021/05/25 06:52:13;;;;;;;5.23;1.60;;;6.70;99.90;;;;;;5050199;28;20426;-67
2021/05/25 06:54:42;;;;;;;4.73;0.90;;;6.70;99.90;;;;;;5049916;28;20510;-69
2021/05/25 06:57:10;;;;;;;4.27;0.90;;;6.70;99.90;;;;;;5047630;28;20474;-67
2021/05/25 06:59:37;;;;;;;3.23;0.87;;;6.60;99.90;;;;;;5050217;28;20808;-67
2021/05/25 07:02:08;;;;;;;2.30;1.17;;;6.70;99.90;;;;;;5049472;28;20430;-67
2021/05/25 07:04:35;;;;;;;7.90;1.00;;;6.80;99.90;;;;;;5049412;28;20815;-67
2021/05/25 07:07:04;;;;;;;1.07;0.97;;;6.80;99.90;;;;;;5047563;28;20488;-68
2021/05/25 07:09:31;;;;;;;4.37;1.47;;;6.90;99.90;;;;;;5049375;28;20437;-67
2021/05/25 07:12:01;;;;;;;3.67;1.40;;;7.00;99.90;;;;;;5049446;28;20426;-67
2021/05/25 07:14:28;;;;;;;2.90;2.57;;;7.10;99.90;;;;;;5047030;28;20450;-67
2021/05/25 07:16:55;;;;;;;2.63;1.13;;;7.00;99.90;;;;;;5049022;28;20488;-67
2021/05/25 07:19:22;;;;;;;2.60;1.07;;;7.10;99.90;;;;;;5050398;28;20435;-67
2021/05/25 07:21:50;;;;;;;5.10;1.50;;;7.10;99.90;;;;;;5053656;28;20450;-67
2021/05/25 07:24:17;;;;;;;2.03;1.10;;;7.20;99.90;;;;;;5053948;28;20469;-66
2021/05/25 07:26:44;;;;;;;5.03;1.07;;;7.10;99.90;;;;;;5053884;28;20819;-67
2021/05/25 07:29:10;;;;;;;4.33;1.13;;;7.10;99.90;;;;;;5054054;28;20450;-67
2021/05/25 07:31:37;;;;;;;1.93;1.07;;;7.40;99.90;;;;;;5053022;28;20434;-67
2021/05/25 07:34:04;;;;;;;1.30;1.00;;;7.40;99.90;;;;;;5053046;28;20449;-67
2021/05/25 07:36:31;;;;;;;3.10;1.30;;;7.20;99.90;;;;;;5052944;28;20475;-67
2021/05/25 07:38:59;;;;;;;5.77;1.53;;;7.00;99.90;;;;;;5053725;28;20428;-67
2021/05/25 07:41:25;;;;;;;2.80;1.43;;;6.90;99.90;;;;;;5053506;28;21030;-67
2021/05/25 07:43:52;;;;;;;3.57;1.50;;;6.80;99.90;;;;;;5053290;28;20524;-66
2021/05/25 07:46:22;;;;;;;2.00;1.00;;;6.70;99.90;;;;;;5053139;28;20968;-67
2021/05/25 07:48:49;;;;;;;2.80;0.97;;;6.50;99.90;;;;;;5053350;28;20974;-67
2021/05/25 07:51:16;;;;;;;4.70;1.00;;;6.50;99.90;;;;;;5053250;28;20486;-67
2021/05/25 07:53:43;;;;;;;5.60;1.50;;;6.20;99.90;;;;;;5052657;28;20494;-67
2021/05/25 07:56:14;;;;;;;2.40;1.03;;;6.10;99.90;;;;;;5053194;28;20483;-68
2021/05/25 07:58:41;;;;;;;0.90;0.77;;;6.20;99.90;;;;;;5053401;28;20498;-67
2021/05/25 08:01:09;;;;;;;7.60;1.30;;;6.30;99.90;;;;;;5052918;28;20523;-68
2021/05/25 08:03:36;;;;;;;1.57;1.20;;;6.50;99.90;;;;;;5048762;28;20423;-67
2021/05/25 08:06:03;;;;;;;3.07;1.10;;;6.70;99.90;;;;;;5053016;28;20455;-66
2021/05/25 08:08:30;;;;;;;2.60;1.10;;;6.80;99.90;;;;;;5053146;28;20537;-68
2021/05/25 08:10:57;;;;;;;4.10;1.10;;;6.80;99.90;;;;;;5052476;28;20445;-67
2021/05/25 08:13:25;;;;;;;3.20;1.00;;;6.90;99.90;;;;;;5049294;28;20671;-68
2021/05/25 08:15:53;;;;;;;2.10;1.03;;;7.00;99.90;;;;;;5052623;28;20483;-67
2021/05/25 08:18:35;;;;;;;3.33;1.17;;;7.20;99.90;;;;;;5052360;28;20460;-67
2021/05/25 08:21:03;;;;;;;1.87;0.90;;;7.40;99.90;;;;;;5052714;28;20437;-67
2021/05/25 08:23:29;;;;;;;3.57;1.83;;;7.40;99.90;;;;;;5052335;28;20436;-67
2021/05/25 08:26:00;;;;;;;4.73;0.90;;;7.50;99.90;;;;;;5052761;28;20451;-67
2021/05/25 08:28:27;;;;;;;6.00;1.33;;;7.60;99.90;;;;;;5047471;28;20438;-68
2021/05/25 08:30:54;;;;;;;2.90;1.10;;;7.60;99.90;;;;;;5051048;28;20441;-68
2021/05/25 08:33:21;;;;;;;1.40;1.30;;;7.50;99.90;;;;;;5052644;28;20435;-66
2021/05/25 08:35:49;;;;;;;1.50;0.83;;;7.50;99.90;;;;;;5052800;28;20485;-67
2021/05/25 08:38:21;;;;;;;5.10;1.50;;;7.60;99.90;;;;;;5052814;28;20569;-67
2021/05/25 08:40:48;;;;;;;7.93;1.60;;;7.60;99.90;;;;;;5052810;28;20486;-67
2021/05/25 08:43:18;;;;;;;1.83;1.00;;;7.80;99.90;;;;;;5052428;28;20442;-65
2021/05/25 08:45:46;;;;;;;1.33;0.70;;;7.70;99.90;;;;;;5052271;28;20800;-66
2021/05/25 08:48:13;;;;;;;4.60;0.80;;;7.90;99.90;;;;;;5051905;28;20424;-67
2021/05/25 08:50:43;;;;;;;5.43;1.27;;;7.90;99.90;;;;;;5052256;28;20470;-68
2021/05/25 08:53:10;;;;;;;5.47;1.33;;;7.90;99.90;;;;;;5051853;28;20531;-67
2021/05/25 08:55:46;;;;;;;2.03;1.13;;;8.10;99.90;;;;;;5052112;28;20472;-68
2021/05/25 08:58:13;;;;;;;2.60;1.40;;;8.40;99.90;;;;;;5049835;28;20434;-67
2021/05/25 09:00:39;;;;;;;5.10;1.20;;;8.60;99.90;;;;;;5051883;28;20431;-68
2021/05/25 09:03:07;;;;;;;1.30;0.90;;;8.70;99.90;;;;;;5051419;28;20439;-67
2021/05/25 09:05:34;;;;;;;1.63;0.73;;;8.70;99.90;;;;;;5049197;28;20846;-68
2021/05/25 09:08:01;;;;;;;3.77;1.10;;;8.70;99.90;;;;;;5052046;28;20437;-67
2021/05/25 09:10:37;;;;;;;7.33;2.33;;;8.60;99.90;;;;;;5051780;28;20434;-68
2021/05/25 09:13:10;;;;;;;2.93;1.23;;;8.50;99.90;;;;;;5049922;28;20493;-67
2021/05/25 09:15:41;;;;;;;1.20;1.00;;;8.50;99.90;;;;;;5048877;28;20515;-67
2021/05/25 09:18:10;;;;;;;4.40;2.10;;;8.50;99.90;;;;;;5051801;28;20439;-67
2021/05/25 09:20:38;;;;;;;1.30;0.97;;;8.80;99.90;;;;;;5052175;28;20462;-66
2021/05/25 09:23:05;;;;;;;2.10;0.73;;;8.90;99.90;;;;;;5051918;28;20918;-67
2021/05/25 09:25:33;;;;;;;2.40;1.10;;;9.10;99.90;;;;;;5051963;28;20426;-67
2021/05/25 09:28:05;;;;;;;0.90;0.70;;;9.30;99.90;;;;;;5051763;28;20445;-67
2021/05/25 09:30:32;;;;;;;4.00;1.03;;;9.50;99.90;;;;;;5051795;28;20525;-67
2021/05/25 09:33:01;;;;;;;1.00;0.83;;;9.70;99.90;;;;;;5051744;28;20509;-67
2021/05/25 09:35:31;;;;;;;1.70;1.03;;;9.60;99.90;;;;;;5051614;28;20904;-67
2021/05/25 09:38:01;;;;;;;2.13;1.03;;;9.40;99.90;;;;;;5051397;28;20474;-67
2021/05/25 09:40:29;;;;;;;1.53;1.40;;;9.30;99.90;;;;;;5051789;28;20909;-67
2021/05/25 09:43:14;;;;;;;6.10;1.40;;;9.00;99.90;;;;;;5051410;28;20792;-65
2021/05/25 09:46:06;;;;;;;3.83;1.20;;;8.90;99.90;;;;;;5051339;28;20442;-67
2021/05/25 09:48:49;;;;;;;1.70;1.00;;;8.80;99.90;;;;;;5051502;28;20433;-67
2021/05/25 09:51:21;;;;;;;3.03;1.60;;;8.70;99.90;;;;;;5051064;28;20445;-67
2021/05/25 09:53:49;;;;;;;1.73;1.10;;;8.70;99.90;;;;;;5050872;28;20495;-67
2021/05/25 09:56:21;;;;;;;3.10;1.20;;;8.60;99.90;;;;;;5050748;28;20465;-67
2021/05/25 09:58:48;;;;;;;4.57;1.10;;;8.80;99.90;;;;;;5051186;28;21099;-67
2021/05/25 10:01:15;;;;;;;2.03;1.10;;;8.80;99.90;;;;;;5051286;28;20434;-67
2021/05/25 10:03:47;;;;;;;3.70;1.17;;;8.90;99.90;;;;;;5050806;28;20423;-67
2021/05/25 10:06:14;;;;;;;1.60;1.30;;;8.90;99.90;;;;;;5051435;28;20947;-67
2021/05/25 10:08:44;;;;;;;7.97;1.10;;;8.90;99.90;;;;;;5051157;28;20954;-67
2021/05/25 10:11:11;;;;;;;4.50;1.70;;;9.00;99.90;;;;;;5051429;28;20431;-67
2021/05/25 10:13:38;;;;;;;1.20;0.70;;;9.20;99.90;;;;;;5050910;28;20453;-67
2021/05/25 10:16:05;;;;;;;4.83;1.37;;;9.50;99.90;;;;;;5050814;28;20552;-66
2021/05/25 10:18:37;;;;;;;3.63;0.97;;;9.50;99.90;;;;;;5051065;28;20955;-66
2021/05/25 10:21:07;;;;;;;1.63;0.90;;;9.50;99.90;;;;;;5050950;28;21031;-67
2021/05/25 10:23:35;;;;;;;1.60;0.70;;;9.60;99.90;;;;;;5050810;28;20430;-67
2021/05/25 10:26:05;;;;;;;4.20;1.30;;;9.70;99.90;;;;;;5050941;28;20446;-67
2021/05/25 10:28:33;;;;;;;6.00;1.10;;;9.90;99.90;;;;;;5050840;28;20437;-66
2021/05/25 10:31:01;;;;;;;3.43;1.00;;;9.90;99.90;;;;;;5050792;28;20509;-67
2021/05/25 10:33:33;;;;;;;3.37;1.07;;;10.10;99.90;;;;;;5050670;28;20847;-66
2021/05/25 10:36:06;;;;;;;3.13;0.80;;;10.20;99.90;;;;;;5050803;28;20892;-66
2021/05/25 10:38:54;;;;;;;3.00;1.40;;;10.40;99.90;;;;;;5050776;28;21122;-66
2021/05/25 10:41:32;;;;;;;3.70;1.00;;;10.30;99.90;;;;;;5050929;28;20439;-67
2021/05/25 10:43:59;;;;;;;5.93;1.00;;;10.60;99.90;;;;;;5050603;28;20434;-66
2021/05/25 10:46:29;;;;;;;1.93;0.70;;;10.90;99.90;;;;;;5050764;28;20498;-67
2021/05/25 10:49:02;;;;;;;1.50;1.10;;;10.70;99.90;;;;;;5050313;28;20423;-67
2021/05/25 10:52:16;;;;;;;4.10;1.00;;;10.50;99.90;;;;;;5050835;28;20442;-66
2021/05/25 10:54:52;;;;;;;5.13;1.40;;;10.30;99.90;;;;;;5032435;28;20431;-67
2021/05/25 10:57:53;;;;;;;6.90;1.50;;;10.40;99.90;;;;;;5034783;28;20500;-67
2021/05/25 11:00:29;;;;;;;2.27;1.77;;;10.40;99.90;;;;;;5034637;28;20493;-66
2021/05/25 11:02:58;;;;;;;5.90;1.03;;;10.50;99.90;;;;;;5034672;28;20777;-66
2021/05/25 11:05:56;;;;;;;1.10;0.80;;;11.00;99.90;;;;;;5034516;28;20616;-67
2021/05/25 11:08:39;;;;;;;6.63;1.07;;;11.10;99.90;;;;;;5034956;28;20427;-67
2021/05/25 11:11:28;;;;;;;5.70;1.90;;;11.10;99.90;;;;;;5034459;28;20515;-67
2021/05/25 11:13:56;;;;;;;7.73;1.03;;;11.10;99.90;;;;;;5051143;28;20450;-67
2021/05/25 11:16:34;;;;;;;2.47;1.13;;;10.90;99.90;;;;;;5053924;28;20553;-67
2021/05/25 11:19:24;;;;;;;3.10;1.07;;;10.70;99.90;;;;;;5053720;28;20857;-67
2021/05/25 11:24:40;;;;;;;3.83;1.30;;;10.60;99.90;;;;;;5054000;28;20414;-67
2021/05/25 11:27:09;;;;;;;1.93;0.93;;;10.70;99.90;;;;;;5054421;28;20838;-67
2021/05/25 11:29:38;;;;;;;2.27;1.77;;;11.20;99.90;;;;;;5053829;28;20434;-67
2021/05/25 11:32:12;;;;;;;4.10;1.80;;;11.50;99.90;;;;;;5053974;28;20433;-67
2021/05/25 11:34:40;;;;;;;2.53;1.07;;;11.70;99.90;;;;;;5053805;28;20520;-67
2021/05/25 11:37:08;;;;;;;2.10;1.10;;;11.60;99.90;;;;;;5053742;28;20566;-67
2021/05/25 11:39:36;;;;;;;1.50;0.87;;;11.40;99.90;;;;;;5053160;28;20463;-67
2021/05/25 11:42:05;;;;;;;1.60;0.97;;;11.50;99.90;;;;;;5053817;28;20438;-67
2021/05/25 11:44:34;;;;;;;1.53;1.40;;;11.60;99.90;;;;;;5053709;28;20431;-66
2021/05/25 11:47:06;;;;;;;1.27;0.90;;;11.40;99.90;;;;;;5053488;28;20465;-66
2021/05/25 11:49:36;;;;;;;3.13;1.00;;;11.20;99.90;;;;;;5053821;28;20429;-68
2021/05/25 11:52:25;;;;;;;6.10;1.17;;;11.00;99.90;;;;;;5053595;28;20458;-67
2021/05/25 11:54:54;;;;;;;2.70;0.90;;;10.80;99.90;;;;;;5053568;28;20507;-65
2021/05/25 11:57:29;;;;;;;2.60;0.90;;;10.70;99.90;;;;;;5053442;28;20470;-67
2021/05/25 11:59:56;;;;;;;1.20;0.90;;;10.50;99.90;;;;;;5052720;28;20462;-68
2021/05/25 12:02:25;;;;;;;4.00;1.00;;;10.50;99.90;;;;;;5053153;28;20426;-67
2021/05/25 12:05:18;;;;;;;1.87;1.03;;;10.40;99.90;;;;;;5053046;28;20451;-68
2021/05/25 12:07:46;;;;;;;5.53;1.07;;;10.40;99.90;;;;;;5097037;22;20496;-68
2021/05/25 12:10:15;;;;;;;2.60;0.90;;;10.40;99.90;;;;;;5073273;28;20430;-67
2021/05/25 12:12:43;;;;;;;2.60;1.00;;;10.50;99.90;;;;;;5073217;28;20422;-67
2021/05/25 12:15:13;;;;;;;5.47;1.03;;;10.50;99.90;;;;;;5073405;28;20430;-67
2021/05/25 12:17:42;;;;;;;2.90;1.00;;;10.60;99.90;;;;;;5072801;28;20480;-67
2021/05/25 12:20:15;;;;;;;2.07;1.20;;;10.50;99.90;;;;;;5073162;28;21058;-67
2021/05/25 12:22:43;;;;;;;1.17;0.97;;;10.40;99.90;;;;;;5073436;28;20483;-67
2021/05/25 12:25:24;;;;;;;2.80;1.13;;;10.40;99.90;;;;;;5072863;28;20434;-67
2021/05/25 12:27:52;;;;;;;2.37;0.90;;;10.40;99.90;;;;;;5073034;28;20454;-67
2021/05/25 12:30:24;;;;;;;15.03;1.77;;;10.40;99.90;;;;;;5073012;28;20849;-67
2021/05/25 12:32:53;;;;;;;1.87;1.10;;;11.10;99.90;;;;;;5072564;28;20505;-67
2021/05/25 12:35:25;;;;;;;3.00;1.10;;;11.70;99.90;;;;;;5072751;28;21129;-67
2021/05/25 12:38:12;;;;;;;3.77;1.03;;;12.00;99.90;;;;;;5072911;28;20539;-67
2021/05/25 12:40:43;;;;;;;2.80;0.93;;;12.40;99.90;;;;;;5072887;28;20472;-67
2021/05/25 12:43:22;;;;;;;4.97;1.17;;;12.90;99.90;;;;;;5072549;28;20442;-67
2021/05/25 12:45:52;;;;;;;8.23;1.33;;;12.30;99.50;;;;;;5072672;28;20468;-66
2021/05/25 12:48:33;;;;;;;23.73;2.13;;;11.60;98.90;;;;;;5072095;28;20856;-67
2021/05/25 12:51:01;;;;;;;3.33;0.80;;;12.10;99.40;;;;;;5072508;28;20441;-67
2021/05/25 12:53:34;;;;;;;3.33;1.17;;;12.50;99.20;;;;;;5072315;28;20434;-67
2021/05/25 12:56:09;;;;;;;1.30;0.90;;;12.50;97.20;;;;;;5072397;28;20445;-67
2021/05/25 12:58:41;;;;;;;3.47;1.10;;;12.80;98.20;;;;;;5071921;28;20922;-68
2021/05/25 13:01:29;;;;;;;6.67;2.37;;;12.70;98.30;;;;;;5071626;28;20444;-69
2021/05/25 13:04:12;;;;;;;6.30;1.80;;;13.40;99.10;;;;;;5069617;28;20496;-68
2021/05/25 13:06:47;;;;;;;7.73;1.10;;;13.40;97.50;;;;;;5069535;28;20457;-67
2021/05/25 13:09:18;;;;;;;3.70;2.03;;;13.70;98.50;;;;;;5069972;28;20467;-67
2021/05/25 13:11:59;;;;;;;2.50;0.97;;;13.60;98.40;;;;;;5072291;28;20438;-67